createdAt,value
2019-03-21T00:02:19.201Z,33.92
2019-03-21T00:04:51.196Z,32.88
2019-03-21T00:07:21.546Z,29.30
2019-03-21T00:10:23.417Z,30.52
2019-03-21T00:12:53.808Z,28.50
2019-03-21T00:15:37.478Z,27.70
2019-03-21T00:18:12.165Z,28.62
2019-03-21T00:20:42.589Z,31.20
2019-03-21T00:23:12.958Z,28.52
2019-03-21T00:25:43.390Z,35.08
2019-03-21T00:28:13.761Z,29.92
2019-03-21T00:30:44.102Z,29.70
2019-03-21T00:33:14.489Z,28.10
2019-03-21T00:35:44.816Z,34.03
2019-03-21T00:38:15.185Z,35.28
2019-03-21T00:40:48.653Z,30.50
2019-03-21T00:43:19.010Z,32.13
2019-03-21T00:45:49.358Z,31.80
2019-03-21T00:48:21.767Z,30.92
2019-03-21T00:50:52.136Z,30.52
2019-03-21T00:53:22.513Z,33.15
2019-03-21T00:55:59.040Z,34.45
2019-03-21T00:58:29.386Z,34.45
2019-03-21T01:01:06.893Z,33.38
2019-03-21T01:03:38.603Z,31.62
2019-03-21T01:06:08.949Z,35.33
2019-03-21T01:08:39.311Z,37.93
2019-03-21T01:11:10.292Z,31.82
2019-03-21T01:13:41.811Z,31.40
2019-03-21T01:16:12.170Z,30.08
2019-03-21T01:18:46.280Z,31.42
2019-03-21T01:21:16.578Z,27.55
2019-03-21T01:23:47.031Z,31.12
2019-03-21T01:26:17.388Z,31.87
2019-03-21T01:28:47.797Z,35.13
2019-03-21T01:31:18.147Z,32.65
2019-03-21T01:33:48.515Z,32.42
2019-03-21T01:36:22.003Z,31.52
2019-03-21T01:38:52.351Z,29.92
2019-03-21T01:41:22.701Z,30.52
2019-03-21T01:43:53.071Z,27.30
2019-03-21T01:46:25.904Z,31.30
2019-03-21T01:51:52.365Z,29.30
2019-03-21T01:54:22.711Z,29.67
2019-03-21T01:56:53.062Z,29.80
2019-03-21T01:59:23.421Z,26.10
2019-03-21T02:01:53.761Z,32.05
2019-03-21T02:04:24.145Z,32.75
2019-03-21T02:06:54.483Z,32.17
2019-03-21T02:09:24.831Z,29.52
2019-03-21T02:11:55.178Z,30.57
2019-03-21T02:14:25.535Z,35.60
2019-03-21T02:16:55.868Z,32.98
2019-03-21T02:19:26.213Z,32.73
2019-03-21T02:21:56.546Z,31.82
2019-03-21T02:24:26.896Z,33.15
2019-03-21T02:26:57.229Z,34.00
2019-03-21T02:29:27.592Z,31.97
2019-03-21T02:31:57.940Z,37.25
2019-03-21T02:34:28.302Z,32.48
2019-03-21T02:36:58.652Z,30.23
2019-03-21T02:39:28.994Z,34.85
2019-03-21T02:41:59.710Z,33.70
2019-03-21T02:44:30.046Z,30.32
2019-03-21T02:47:00.381Z,35.30
2019-03-21T02:49:30.726Z,35.90
2019-03-21T02:52:01.059Z,31.60
2019-03-21T02:54:31.405Z,31.50
2019-03-21T02:57:01.920Z,30.10
2019-03-21T02:59:32.303Z,31.55
2019-03-21T03:02:02.612Z,34.58
2019-03-21T03:04:32.942Z,37.65
2019-03-21T03:07:04.268Z,36.25
2019-03-21T03:09:35.161Z,30.40
2019-03-21T03:12:05.504Z,32.85
2019-03-21T03:14:37.467Z,32.90
2019-03-21T03:17:07.810Z,31.87
2019-03-21T03:19:38.144Z,37.33
2019-03-21T03:22:08.489Z,32.38
2019-03-21T03:24:38.857Z,32.70
2019-03-21T03:27:09.184Z,32.70
2019-03-21T03:29:39.523Z,34.50
2019-03-21T03:32:09.859Z,29.30
2019-03-21T03:34:41.423Z,32.48
2019-03-21T03:37:11.764Z,33.50
2019-03-21T03:39:42.107Z,30.65
2019-03-21T03:42:12.452Z,35.92
2019-03-21T03:44:42.825Z,31.27
2019-03-21T03:47:13.173Z,33.63
2019-03-21T03:49:43.508Z,34.98
2019-03-21T03:52:13.848Z,31.17
2019-03-21T03:54:44.191Z,34.53
2019-03-21T03:57:14.696Z,36.05
2019-03-21T03:59:45.037Z,34.25
2019-03-21T04:02:15.384Z,32.00
2019-03-21T04:04:45.746Z,32.08
2019-03-21T04:07:16.149Z,32.42
2019-03-21T04:09:46.500Z,34.00
2019-03-21T04:12:17.570Z,32.33
2019-03-21T04:14:47.918Z,33.75
2019-03-21T04:17:18.279Z,32.88
2019-03-21T04:19:49.196Z,34.08
2019-03-21T04:22:19.539Z,32.08
2019-03-21T04:24:50.252Z,37.10
2019-03-21T04:27:20.927Z,36.17
2019-03-21T04:29:51.285Z,30.17
2019-03-21T04:32:21.619Z,30.62
2019-03-21T04:34:51.971Z,30.55
2019-03-21T04:37:23.289Z,35.88
2019-03-21T04:39:53.630Z,36.48
2019-03-21T04:42:23.971Z,31.07
2019-03-21T04:44:54.325Z,34.83
2019-03-21T04:47:24.657Z,35.75
2019-03-21T04:49:54.993Z,36.28
2019-03-21T04:52:25.339Z,32.20
2019-03-21T04:54:56.751Z,30.45
2019-03-21T04:57:27.107Z,33.50
2019-03-21T04:59:57.456Z,33.23
2019-03-21T05:02:27.811Z,35.90
2019-03-21T05:04:58.151Z,33.95
2019-03-21T05:07:28.506Z,32.95
2019-03-21T05:09:58.844Z,34.98
2019-03-21T05:12:29.209Z,34.75
2019-03-21T05:14:59.546Z,35.60
2019-03-21T05:17:29.902Z,38.78
2019-03-21T05:20:00.337Z,33.15
2019-03-21T05:22:32.976Z,33.38
2019-03-21T05:25:03.886Z,34.30
2019-03-21T05:27:34.238Z,38.85
2019-03-21T05:30:09.432Z,41.20
2019-03-21T05:32:39.788Z,35.58
2019-03-21T05:35:10.876Z,35.75
2019-03-21T05:37:41.238Z,38.08
2019-03-21T05:40:15.546Z,41.35
2019-03-21T05:43:08.338Z,38.85
2019-03-21T05:45:38.686Z,41.28
2019-03-21T05:48:09.066Z,40.52
2019-03-21T05:50:39.429Z,40.17
2019-03-21T05:53:09.940Z,51.73
2019-03-21T05:55:40.287Z,51.02
2019-03-21T05:58:10.644Z,46.28
2019-03-21T06:00:51.262Z,46.88
2019-03-21T06:03:31.805Z,47.80
2019-03-21T06:06:09.370Z,51.60
2019-03-21T06:08:41.741Z,49.35
2019-03-21T06:11:12.093Z,48.73
2019-03-21T06:13:45.875Z,51.23
2019-03-21T06:16:17.846Z,43.98
2019-03-21T06:19:13.930Z,42.78
2019-03-21T06:22:05.759Z,41.25
2019-03-21T06:25:00.468Z,44.60
2019-03-21T06:27:32.317Z,43.92
2019-03-21T06:30:02.770Z,42.33
2019-03-21T06:32:33.120Z,41.10
2019-03-21T06:35:03.730Z,41.08
2019-03-21T06:37:34.070Z,44.80
2019-03-21T06:40:06.059Z,48.05
2019-03-21T06:42:38.884Z,46.40
2019-03-21T06:45:20.799Z,48.87
2019-03-21T06:47:53.292Z,46.20
2019-03-21T06:50:23.632Z,45.25
2019-03-21T06:52:54.777Z,50.30
2019-03-21T06:55:25.142Z,52.62
2019-03-21T06:57:55.479Z,54.20
2019-03-21T07:00:25.829Z,51.08
2019-03-21T07:02:56.176Z,59.93
2019-03-21T07:05:26.947Z,49.60
2019-03-21T07:07:57.287Z,54.42
2019-03-21T07:10:27.667Z,57.85
2019-03-21T07:12:57.970Z,58.00
2019-03-21T07:15:28.314Z,60.52
2019-03-21T07:17:58.770Z,64.30
2019-03-21T07:20:29.120Z,73.90
2019-03-21T07:22:59.478Z,66.05
2019-03-21T07:25:29.823Z,74.58
2019-03-21T07:28:00.162Z,70.20
2019-03-21T07:30:30.516Z,72.58
2019-03-21T07:33:00.889Z,73.33
2019-03-21T07:35:31.249Z,68.70
2019-03-21T07:38:01.610Z,69.82
2019-03-21T07:40:31.957Z,62.55
2019-03-21T07:43:02.314Z,58.95
2019-03-21T07:45:32.674Z,59.73
2019-03-21T07:48:05.180Z,51.50
2019-03-21T07:50:35.331Z,57.05
2019-03-21T07:53:05.690Z,55.67
2019-03-21T07:55:36.050Z,58.28
2019-03-21T07:58:06.464Z,55.33
2019-03-21T08:00:36.759Z,55.95
2019-03-21T08:03:07.117Z,63.05
2019-03-21T08:05:40.510Z,61.70
2019-03-21T08:08:09.498Z,51.33
2019-03-21T08:10:39.851Z,49.27
2019-03-21T08:13:10.195Z,51.30
2019-03-21T08:15:40.535Z,51.85
2019-03-21T08:18:12.056Z,39.78
2019-03-21T08:20:42.420Z,39.55
2019-03-21T08:23:12.760Z,38.10
2019-03-21T08:25:43.123Z,39.60
2019-03-21T08:28:13.481Z,34.73
2019-03-21T08:31:04.920Z,38.00
2019-03-21T08:33:35.559Z,32.67
2019-03-21T08:36:05.937Z,39.55
2019-03-21T08:38:36.292Z,36.75
2019-03-21T08:41:07.517Z,37.67
2019-03-21T08:43:37.862Z,33.83
2019-03-21T08:46:08.220Z,35.33
2019-03-21T08:48:38.650Z,33.75
2019-03-21T08:51:09.191Z,36.88
2019-03-21T08:53:39.559Z,40.40
2019-03-21T08:56:09.904Z,33.28
2019-03-21T08:58:41.317Z,38.17
2019-03-21T09:01:11.666Z,37.53
2019-03-21T09:03:42.012Z,37.75
2019-03-21T09:06:12.363Z,36.17
2019-03-21T09:08:42.707Z,36.38
2019-03-21T09:11:13.064Z,34.43
2019-03-21T09:13:43.412Z,34.55
2019-03-21T09:16:13.763Z,30.50
2019-03-21T09:18:44.106Z,32.78
2019-03-21T09:21:19.773Z,30.55
2019-03-21T09:23:46.504Z,33.50
2019-03-21T09:26:16.847Z,39.33
2019-03-21T09:28:47.293Z,33.30
2019-03-21T09:31:17.619Z,31.00
2019-03-21T09:33:47.987Z,25.35
2019-03-21T09:36:18.325Z,29.02
2019-03-21T09:38:48.672Z,24.75
2019-03-21T09:41:19.013Z,32.30
2019-03-21T09:43:49.361Z,25.70
2019-03-21T09:46:19.709Z,27.60
2019-03-21T09:48:50.070Z,31.12
2019-03-21T09:51:30.624Z,27.40
2019-03-21T09:53:52.852Z,27.70
2019-03-21T09:56:24.172Z,28.05
2019-03-21T09:58:54.515Z,28.27
2019-03-21T10:01:24.859Z,25.50
2019-03-21T10:03:55.200Z,27.80
2019-03-21T10:06:25.563Z,27.32
2019-03-21T10:08:55.909Z,26.65
2019-03-21T10:11:26.255Z,26.62
2019-03-21T10:13:56.601Z,27.62
2019-03-21T10:16:26.958Z,30.52
2019-03-21T10:18:57.307Z,28.02
2019-03-21T10:21:27.649Z,27.10
2019-03-21T10:23:58.011Z,28.02
2019-03-21T10:26:28.356Z,28.98
2019-03-21T10:28:58.712Z,30.02
2019-03-21T10:31:29.065Z,30.62
2019-03-21T10:33:59.415Z,28.77
2019-03-21T10:36:29.763Z,32.00
2019-03-21T10:39:00.194Z,29.18
2019-03-21T10:41:30.544Z,31.52
2019-03-21T10:44:00.890Z,32.28
2019-03-21T10:46:31.253Z,36.55
2019-03-21T10:49:01.599Z,34.35
2019-03-21T10:51:31.955Z,34.80
2019-03-21T10:54:02.303Z,31.55
2019-03-21T10:56:32.651Z,31.15
2019-03-21T10:59:03.034Z,29.52
2019-03-21T11:01:34.561Z,30.15
2019-03-21T11:04:05.085Z,28.60
2019-03-21T11:06:35.450Z,33.67
2019-03-21T11:09:07.975Z,30.75
2019-03-21T11:11:38.322Z,31.37
2019-03-21T11:14:08.670Z,31.90
2019-03-21T11:16:39.023Z,29.98
2019-03-21T11:19:09.367Z,32.75
2019-03-21T11:21:39.715Z,28.20
2019-03-21T11:24:10.066Z,27.32
2019-03-21T11:26:40.434Z,28.02
2019-03-21T11:29:10.787Z,28.83
2019-03-21T11:31:41.139Z,28.90
2019-03-21T11:34:11.496Z,30.15
2019-03-21T11:36:41.848Z,30.82
2019-03-21T11:39:12.214Z,30.02
2019-03-21T11:41:42.632Z,31.27
2019-03-21T11:44:13.010Z,31.35
2019-03-21T11:46:43.362Z,31.77
2019-03-21T11:49:14.904Z,31.85
2019-03-21T11:51:45.248Z,35.33
2019-03-21T11:54:15.591Z,35.03
2019-03-21T11:56:45.945Z,34.67
2019-03-21T11:59:16.290Z,32.70
2019-03-21T12:01:46.639Z,36.85
2019-03-21T12:04:17.005Z,35.15
2019-03-21T12:06:47.349Z,36.63
2019-03-21T12:09:17.701Z,39.42
2019-03-21T12:11:48.080Z,37.03
2019-03-21T12:14:18.718Z,37.08
2019-03-21T12:16:49.063Z,39.58
2019-03-21T12:19:19.409Z,39.30
2019-03-21T12:21:49.752Z,43.38
2019-03-21T12:24:20.102Z,36.88
2019-03-21T12:26:50.502Z,39.15
2019-03-21T12:29:20.837Z,36.63
2019-03-21T12:31:51.197Z,39.10
2019-03-21T12:34:21.549Z,40.50
2019-03-21T12:36:51.893Z,38.08
2019-03-21T12:39:22.238Z,36.33
2019-03-21T12:41:52.595Z,41.37
2019-03-21T12:44:22.994Z,42.23
2019-03-21T12:46:53.358Z,39.18
2019-03-21T12:49:23.718Z,39.00
2019-03-21T12:51:54.060Z,42.27
2019-03-21T12:54:24.404Z,39.50
2019-03-21T12:56:54.801Z,32.70
2019-03-21T12:59:25.147Z,37.15
2019-03-21T13:01:55.500Z,33.02
2019-03-21T13:04:25.845Z,37.35
2019-03-21T13:06:56.217Z,40.00
2019-03-21T13:09:26.565Z,36.03
2019-03-21T13:11:56.914Z,36.75
2019-03-21T13:14:27.260Z,42.50
2019-03-21T13:16:57.616Z,35.70
2019-03-21T13:19:27.961Z,34.58
2019-03-21T13:21:58.309Z,37.35
2019-03-21T13:24:28.668Z,38.55
2019-03-21T13:27:00.199Z,39.90
2019-03-21T13:29:30.752Z,37.23
2019-03-21T13:32:01.099Z,40.08
2019-03-21T13:34:31.448Z,33.70
2019-03-21T13:37:01.798Z,33.55
2019-03-21T13:39:32.152Z,33.65
2019-03-21T13:42:02.503Z,34.90
2019-03-21T13:44:32.855Z,38.78
2019-03-21T13:47:03.206Z,40.83
2019-03-21T13:49:33.551Z,34.65
2019-03-21T13:52:04.961Z,36.38
2019-03-21T13:54:35.419Z,34.63
2019-03-21T13:57:05.807Z,35.80
2019-03-21T13:59:36.152Z,34.98
2019-03-21T14:02:06.578Z,39.67
2019-03-21T14:04:36.925Z,34.67
2019-03-21T14:07:07.294Z,35.92
2019-03-21T14:09:37.642Z,33.20
2019-03-21T14:12:08.024Z,35.98
2019-03-21T14:14:38.355Z,33.42
2019-03-21T14:17:08.745Z,37.13
2019-03-21T14:19:39.164Z,39.13
2019-03-21T14:22:09.556Z,35.80
2019-03-21T14:24:39.903Z,35.90
2019-03-21T14:27:10.282Z,34.63
2019-03-21T14:29:40.636Z,36.10
2019-03-21T14:32:11.956Z,35.30
2019-03-21T14:34:42.306Z,30.70
2019-03-21T14:37:12.672Z,33.65
2019-03-21T14:39:43.035Z,32.93
2019-03-21T14:42:13.702Z,31.87
2019-03-21T14:44:44.085Z,33.28
2019-03-21T14:47:14.431Z,33.15
2019-03-21T14:49:44.781Z,31.57
2019-03-21T14:52:15.130Z,32.48
2019-03-21T14:54:45.483Z,31.40
2019-03-21T14:57:15.827Z,27.73
2019-03-21T14:59:46.185Z,30.12
2019-03-21T15:02:16.529Z,30.27
2019-03-21T15:04:47.959Z,28.20
2019-03-21T15:07:18.806Z,26.75
2019-03-21T15:09:50.295Z,26.90
2019-03-21T15:12:20.650Z,28.25
2019-03-21T15:14:51.021Z,28.02
2019-03-21T15:17:21.384Z,25.20
2019-03-21T15:19:51.730Z,28.85
2019-03-21T15:22:22.068Z,27.73
2019-03-21T15:24:52.418Z,28.02
2019-03-21T15:27:22.787Z,25.55
2019-03-21T15:29:53.152Z,25.60
2019-03-21T15:32:23.493Z,25.12
2019-03-21T15:34:53.845Z,31.65
2019-03-21T15:37:24.226Z,28.73
2019-03-21T15:39:54.589Z,25.97
2019-03-21T15:42:24.926Z,26.23
2019-03-21T15:45:10.189Z,22.52
2019-03-21T15:47:27.321Z,20.10
2019-03-21T15:49:57.686Z,21.05
2019-03-21T15:52:28.028Z,20.37
2019-03-21T15:54:58.385Z,20.43
2019-03-21T15:57:28.730Z,20.17
2019-03-21T15:59:59.089Z,17.27
2019-03-21T16:02:29.430Z,21.93
2019-03-21T16:04:59.779Z,18.77
2019-03-21T16:07:30.127Z,18.80
2019-03-21T16:10:00.510Z,20.12
2019-03-21T16:12:31.633Z,18.27
2019-03-21T16:15:01.983Z,18.07
2019-03-21T16:17:32.329Z,19.37
2019-03-21T16:20:02.981Z,20.37
2019-03-21T16:22:33.344Z,17.80
2019-03-21T16:25:05.140Z,25.65
2019-03-21T16:27:36.720Z,20.02
2019-03-21T16:30:12.953Z,20.68
2019-03-21T16:32:44.381Z,20.15
2019-03-21T16:35:14.884Z,19.40
2019-03-21T16:37:45.233Z,21.10
2019-03-21T16:40:16.621Z,19.67
2019-03-21T16:42:46.964Z,20.72
2019-03-21T16:45:20.957Z,20.23
2019-03-21T16:47:50.356Z,22.48
2019-03-21T16:50:20.708Z,19.75
2019-03-21T16:52:51.073Z,21.20
2019-03-21T16:55:21.446Z,20.88
2019-03-21T16:57:51.799Z,18.85
2019-03-21T17:00:22.304Z,25.32
2019-03-21T17:02:52.644Z,24.23
2019-03-21T17:05:23.044Z,24.65
2019-03-21T17:07:53.395Z,26.68
2019-03-21T17:10:23.789Z,27.65
2019-03-21T17:12:54.213Z,29.27
2019-03-21T17:15:24.610Z,27.48
2019-03-21T17:17:54.966Z,28.07
2019-03-21T17:20:28.366Z,23.95
2019-03-21T17:22:58.704Z,24.05
2019-03-21T17:25:31.357Z,23.90
2019-03-21T17:28:01.131Z,24.40
2019-03-21T17:30:31.474Z,24.23
2019-03-21T17:33:01.824Z,26.10
2019-03-21T17:35:32.199Z,25.27
2019-03-21T17:38:03.038Z,25.17
2019-03-21T17:40:33.417Z,25.97
2019-03-21T17:43:03.767Z,29.05
2019-03-21T17:45:34.141Z,28.02
2019-03-21T17:48:04.771Z,26.42
2019-03-21T17:50:35.131Z,24.43
2019-03-21T17:53:05.486Z,27.85
2019-03-21T17:55:35.975Z,28.55
2019-03-21T17:58:06.351Z,29.75
2019-03-21T18:00:37.095Z,27.98
2019-03-21T18:03:07.513Z,24.37
2019-03-21T18:05:37.887Z,28.30
2019-03-21T18:08:09.000Z,26.07
2019-03-21T18:10:39.376Z,28.05
2019-03-21T18:13:09.715Z,30.20
2019-03-21T18:15:40.076Z,30.35
2019-03-21T18:18:10.424Z,29.70
2019-03-21T18:20:41.088Z,30.32
2019-03-21T18:23:11.455Z,26.80
2019-03-21T18:25:43.441Z,28.35
2019-03-21T18:28:13.796Z,27.48
2019-03-21T18:30:45.142Z,29.50
2019-03-21T18:33:15.491Z,28.87
2019-03-21T18:35:45.851Z,32.25
2019-03-21T18:38:16.287Z,31.95
2019-03-21T18:40:46.641Z,29.10
2019-03-21T18:43:16.989Z,33.13
2019-03-21T18:45:47.361Z,33.92
2019-03-21T18:48:17.791Z,31.35
2019-03-21T18:50:48.091Z,30.20
2019-03-21T18:53:21.480Z,32.23
2019-03-21T18:55:51.848Z,33.15
2019-03-21T18:58:22.188Z,34.60
2019-03-21T19:00:52.551Z,37.15
2019-03-21T19:03:22.898Z,31.17
2019-03-21T19:05:53.277Z,31.85
2019-03-21T19:08:24.580Z,33.50
2019-03-21T19:10:54.936Z,33.55
2019-03-21T19:13:25.277Z,31.35
2019-03-21T19:15:57.046Z,36.65
2019-03-21T19:18:27.397Z,36.45
2019-03-21T19:20:57.743Z,34.58
2019-03-21T19:23:28.087Z,34.53
2019-03-21T19:25:58.438Z,33.42
2019-03-21T19:28:28.791Z,35.80
2019-03-21T19:30:59.162Z,35.98
2019-03-21T19:33:29.496Z,36.00
2019-03-21T19:35:59.850Z,35.60
2019-03-21T19:38:31.172Z,35.65
2019-03-21T19:41:01.529Z,36.15
2019-03-21T19:43:31.882Z,33.23
2019-03-21T19:46:02.234Z,37.08
2019-03-21T19:48:32.588Z,34.70
2019-03-21T19:51:02.934Z,31.25
2019-03-21T19:53:33.592Z,38.00
2019-03-21T19:56:08.617Z,37.60
2019-03-21T19:58:36.286Z,38.95
2019-03-21T20:01:06.919Z,37.78
2019-03-21T20:03:37.256Z,30.48
2019-03-21T20:06:07.608Z,34.15
2019-03-21T20:08:37.947Z,36.28
2019-03-21T20:11:09.269Z,37.13
2019-03-21T20:13:39.611Z,38.70
2019-03-21T20:16:09.969Z,39.55
2019-03-21T20:18:40.310Z,42.65
2019-03-21T20:21:10.665Z,39.63
2019-03-21T20:23:41.017Z,37.78
2019-03-21T20:26:11.390Z,43.68
2019-03-21T20:28:41.791Z,39.10
2019-03-21T20:31:12.126Z,39.30
2019-03-21T20:33:42.479Z,39.18
2019-03-21T20:36:12.829Z,35.08
2019-03-21T20:38:45.618Z,39.67
2019-03-21T20:41:15.977Z,38.85
2019-03-21T20:43:46.322Z,38.35
2019-03-21T20:46:16.672Z,37.05
2019-03-21T20:48:45.380Z,38.02
2019-03-21T20:51:15.741Z,38.92
2019-03-21T20:53:46.086Z,42.30
2019-03-21T20:56:16.710Z,38.90
2019-03-21T20:58:47.074Z,40.33
2019-03-21T21:01:17.450Z,39.23
2019-03-21T21:03:47.824Z,42.85
2019-03-21T21:06:18.187Z,43.02
2019-03-21T21:08:48.578Z,37.38
2019-03-21T21:11:18.973Z,34.13
2019-03-21T21:13:49.351Z,39.38
2019-03-21T21:16:19.710Z,40.03
2019-03-21T21:18:50.080Z,37.90
2019-03-21T21:21:20.493Z,40.78
2019-03-21T21:23:50.878Z,36.38
2019-03-21T21:26:21.300Z,35.30
2019-03-21T21:28:51.673Z,39.80
2019-03-21T21:31:22.069Z,35.78
2019-03-21T21:33:52.461Z,46.13
2019-03-21T21:36:23.163Z,39.18
2019-03-21T21:38:53.528Z,39.88
2019-03-21T21:41:23.930Z,43.85
2019-03-21T21:43:54.345Z,39.80
2019-03-21T21:46:24.695Z,39.48
2019-03-21T21:48:55.069Z,38.10
2019-03-21T21:51:25.417Z,38.80
2019-03-21T21:53:55.767Z,40.23
2019-03-21T21:56:27.081Z,44.65
2019-03-21T21:58:57.438Z,38.00
2019-03-21T22:01:27.780Z,40.65
2019-03-21T22:04:04.571Z,40.70
2019-03-21T22:06:30.158Z,42.05
2019-03-21T22:09:00.513Z,39.03
2019-03-21T22:11:32.507Z,42.08
2019-03-21T22:14:02.852Z,41.90
2019-03-21T22:16:33.187Z,38.00
2019-03-21T22:19:03.542Z,38.50
2019-03-21T22:21:33.881Z,40.17
2019-03-21T22:24:04.302Z,40.67
2019-03-21T22:26:34.646Z,40.67
2019-03-21T22:29:05.005Z,37.78
2019-03-21T22:31:35.355Z,39.73
2019-03-21T22:34:05.769Z,38.63
2019-03-21T22:36:36.109Z,40.52
2019-03-21T22:39:07.590Z,39.50
2019-03-21T22:41:37.938Z,41.80
2019-03-21T22:44:08.286Z,44.67
2019-03-21T22:46:38.621Z,38.50
2019-03-21T22:49:08.968Z,37.17
2019-03-21T22:51:39.322Z,40.00
2019-03-21T22:54:09.678Z,39.15
2019-03-21T22:56:41.451Z,42.43
2019-03-21T22:59:12.162Z,43.90
2019-03-21T23:01:42.576Z,40.10
2019-03-21T23:04:12.929Z,43.78
2019-03-21T23:06:43.272Z,40.05
2019-03-21T23:09:13.619Z,38.90
2019-03-21T23:11:43.958Z,38.13
2019-03-21T23:14:14.322Z,41.90
2019-03-21T23:16:46.656Z,43.65
2019-03-21T23:19:17.037Z,37.83
2019-03-21T23:21:47.331Z,41.05
2019-03-21T23:24:17.678Z,36.73
2019-03-21T23:26:53.022Z,39.85
2019-03-21T23:29:21.137Z,38.33
2019-03-21T23:31:51.480Z,38.33
2019-03-21T23:34:21.908Z,43.65
2019-03-21T23:36:52.253Z,41.73
2019-03-21T23:39:22.593Z,40.88
2019-03-21T23:41:52.937Z,46.28
2019-03-21T23:44:23.285Z,46.30
2019-03-21T23:46:53.625Z,45.25
2019-03-21T23:49:23.971Z,37.90
2019-03-21T23:51:54.311Z,43.13
2019-03-21T23:54:24.655Z,45.83
2019-03-21T23:57:04.092Z,41.88
2019-03-21T23:59:27.046Z,43.08
